Aroma Park, IL (60910)

3:34 PM CDT on August 27, 2015 (GMT -0500)
rural Saint Anne | | Change Station
CLOSE
Current Station
Personal Weather Station
Location: Saint Anne, IL
Elevation: 689 ft
Nearby Weather Stations

Elev 689 ft 41.06 °N, 87.75 °W | Updated 10 minutes ago

Clear
Clear
84.0 °F
Feels Like 84 °F
N
2.2
Wind Variable Wind from NNW

Today
High -- | Low -- °F
--% Chance of Precip.
Yesterday
High -- | Low -- °F
Precip. -- in
6:12 AM 7:32 PM
Waxing Gibbous, 95% visible
Pressure 30.15 in
Visibility 10.0 miles
Clouds Clear
Heat Index 84 °F
Dew Point 60 °F
Humidity 44%
Rainfall 0.00 in
Snow Depth Not available.
UV 6 out of 12
Pollen 9.00 out of 12
Air Quality Not available.
Flu Activity Not available.
METAR KIKK 272015Z AUTO 34003KT 10SM CLR 23/15 A3015 RMK AO2 T02330146
Pressure 30.15 in
Visibility 10.0 miles
Clouds Clear
Heat Index 84 °F
Dew Point 60 °F
Humidity 44%
Rainfall 0.00 in
Snow Depth Not available.
UV 6 out of 12
Pollen 9.00 out of 12
Air Quality Not available.
Flu Activity Not available.
METAR KIKK 272015Z AUTO 34003KT 10SM CLR 23/15 A3015 RMK AO2 T02330146

10-Day Weather Forecast

×

Almanac

Astronomy

Aug. 27, 2015 Rise Set
Actual Time
Civil Twilight
Nautical Twilight
Astronomical Twilight
Moon
Length of Visible Light
Length of Day
Tomorrow will be .
, % of the Moon is Illuminated

Today's Extremes

State Highs State Lows

Community

WunderPhotos

Upload Photos

1,850,206 photos uploaded!

WunderBlogs® & News

Nearby

Air Quality

  Air Quality AQ Index Pollutant
Not available.

Snow Depth

Station Depth Elevation

Earthquake Activity

City Distance Mag. Time & Date
Minimum magnitude displayed is 2.5.

Coastal Water Temperatures

Place Temperature

Stations

Nearby Weather Stations

Station Location Temp. Windchill Dew Point Humidity Wind Precip. Elev Updated Type